Time;durP1;ratioP1;P1;durP2;ratioP2;P2;SDS_P1;SDS_P2;PMS_P1;PMS_P2;Temp;Humidity;BMP_temperature;BMP_pressure;BME280_temperature;BME280_humidity;BME280_pressure;Samples;Min_cycle;Max_cycle;Signal;HPM_P1;HPM_P2
2022/12/08 00:01:11;;;;;;;79.63;35.17;;;6.50;98.60;;;;;;5062760;28;20240;-64
2022/12/08 00:03:38;;;;;;;88.40;37.87;;;6.50;98.40;;;;;;5064265;28;20203;-63
2022/12/08 00:09:34;;;;;;;85.57;36.47;;;6.40;98.00;;;;;;5065484;28;20284;-64
2022/12/08 00:12:07;;;;;;;104.03;38.93;;;6.40;97.90;;;;;;5065554;28;20662;-63
2022/12/08 00:14:37;;;;;;;100.60;39.37;;;6.30;98.00;;;;;;5069148;28;20217;-64
2022/12/08 00:17:06;;;;;;;87.50;37.97;;;6.30;98.10;;;;;;5059114;28;20221;-64
2022/12/08 00:19:33;;;;;;;84.37;37.30;;;6.30;98.20;;;;;;5058186;28;20500;-64
2022/12/08 00:22:02;;;;;;;89.23;39.70;;;6.20;98.20;;;;;;5064259;28;20202;-64
2022/12/08 00:24:31;;;;;;;89.17;37.83;;;6.20;98.20;;;;;;5062031;28;20194;-64
2022/12/08 00:26:59;;;;;;;82.17;38.07;;;6.20;98.20;;;;;;5062235;28;20201;-64
2022/12/08 00:29:26;;;;;;;83.17;36.77;;;6.20;98.30;;;;;;5045787;28;20201;-64
2022/12/08 00:31:53;;;;;;;79.67;36.53;;;6.20;98.30;;;;;;5059357;28;20229;-64
2022/12/08 00:34:20;;;;;;;78.93;37.43;;;6.20;98.30;;;;;;5049287;28;20194;-64
2022/12/08 00:36:47;;;;;;;76.10;34.53;;;6.20;98.30;;;;;;5061984;28;20211;-64
2022/12/08 00:39:16;;;;;;;75.20;35.80;;;6.20;98.30;;;;;;5063857;28;20186;-64
2022/12/08 00:44:29;;;;;;;85.03;38.57;;;6.10;98.40;;;;;;5058846;28;20202;-64
2022/12/08 00:46:56;;;;;;;81.43;38.77;;;6.20;98.40;;;;;;5058717;28;20209;-63
2022/12/08 00:49:23;;;;;;;87.90;39.00;;;6.20;98.40;;;;;;5044476;28;20205;-64
2022/12/08 00:51:51;;;;;;;94.00;39.73;;;6.10;98.50;;;;;;5065121;28;20212;-64
2022/12/08 00:54:18;;;;;;;88.43;38.03;;;6.20;98.60;;;;;;5067660;28;20548;-64
2022/12/08 00:56:45;;;;;;;85.50;37.40;;;6.20;98.40;;;;;;5069983;28;20244;-64
2022/12/08 00:59:12;;;;;;;96.73;41.43;;;6.10;98.20;;;;;;5062264;28;20237;-64
2022/12/08 01:01:40;;;;;;;89.17;40.90;;;6.10;98.20;;;;;;5064017;28;20544;-63
2022/12/08 01:04:10;;;;;;;95.07;38.07;;;6.10;98.40;;;;;;5063569;28;20210;-63
2022/12/08 01:06:38;;;;;;;89.10;40.20;;;6.10;98.50;;;;;;5062406;28;20206;-63
2022/12/08 01:09:07;;;;;;;96.93;40.10;;;6.10;98.60;;;;;;5056769;28;20547;-63
2022/12/08 01:11:35;;;;;;;99.90;41.03;;;6.10;98.60;;;;;;5065378;28;20217;-63
2022/12/08 01:14:03;;;;;;;108.20;42.30;;;6.10;98.40;;;;;;5057579;28;20203;-64
2022/12/08 01:16:33;;;;;;;114.53;44.37;;;6.10;98.40;;;;;;5058923;28;20209;-63
2022/12/08 01:19:01;;;;;;;106.93;43.07;;;6.10;98.50;;;;;;5063385;28;20267;-64
2022/12/08 01:21:28;;;;;;;111.53;44.17;;;6.20;98.60;;;;;;5061654;28;20551;-64
2022/12/08 01:23:56;;;;;;;100.57;42.50;;;6.10;98.40;;;;;;5068020;28;20612;-64
2022/12/08 01:26:23;;;;;;;116.07;43.93;;;6.10;98.40;;;;;;5060434;28;20209;-64
2022/12/08 01:28:50;;;;;;;109.33;44.90;;;6.10;98.50;;;;;;5060063;28;20256;-64
2022/12/08 01:31:19;;;;;;;105.23;41.47;;;6.10;98.40;;;;;;5062244;28;20544;-64
2022/12/08 01:33:47;;;;;;;104.73;44.03;;;6.10;98.50;;;;;;5063803;28;20639;-64
2022/12/08 01:36:22;;;;;;;102.60;39.90;;;6.10;98.60;;;;;;5062009;28;20289;-63
2022/12/08 01:38:50;;;;;;;88.37;40.37;;;6.20;98.70;;;;;;5049471;28;20208;-63
2022/12/08 01:41:21;;;;;;;104.13;42.83;;;6.20;98.70;;;;;;5045112;28;20194;-63
2022/12/08 01:44:06;;;;;;;98.00;43.33;;;6.20;98.70;;;;;;5069602;28;20666;-64
2022/12/08 01:46:38;;;;;;;105.03;41.43;;;6.20;98.70;;;;;;5053785;28;20201;-63
2022/12/08 01:49:28;;;;;;;78.43;36.00;;;6.20;98.60;;;;;;5062187;28;20226;-63
2022/12/08 01:52:02;;;;;;;68.77;34.20;;;6.30;98.60;;;;;;5060794;28;20213;-63
2022/12/08 01:54:33;;;;;;;69.63;34.37;;;6.30;98.60;;;;;;5060570;28;20675;-63
2022/12/08 01:57:12;;;;;;;73.87;35.40;;;6.30;98.60;;;;;;5058123;28;20251;-64
2022/12/08 01:59:46;;;;;;;82.67;37.57;;;6.30;98.50;;;;;;5056446;28;20257;-63
2022/12/08 02:02:14;;;;;;;83.83;37.20;;;6.20;98.50;;;;;;5066196;28;20204;-63
2022/12/08 02:04:41;;;;;;;77.50;37.00;;;6.20;98.40;;;;;;5066888;28;20516;-64
2022/12/08 02:07:10;;;;;;;76.67;34.77;;;6.20;98.40;;;;;;5066114;28;20650;-64
2022/12/08 02:09:39;;;;;;;86.47;35.67;;;6.20;98.30;;;;;;5063404;28;20690;-63
2022/12/08 02:12:07;;;;;;;77.40;36.97;;;6.20;98.30;;;;;;5063408;28;20225;-63
2022/12/08 02:14:34;;;;;;;92.93;39.33;;;6.20;98.30;;;;;;5060360;28;20243;-63
2022/12/08 02:17:01;;;;;;;80.37;38.00;;;6.20;98.30;;;;;;5062713;28;20636;-64
2022/12/08 02:19:59;;;;;;;82.87;38.33;;;6.20;98.20;;;;;;5060204;28;20194;-63
2022/12/08 02:22:38;;;;;;;87.80;38.47;;;6.20;98.30;;;;;;5060918;28;20190;-63
2022/12/08 02:25:23;;;;;;;92.33;39.97;;;6.20;98.20;;;;;;5060755;28;20199;-64
2022/12/08 02:27:59;;;;;;;81.57;38.70;;;6.20;98.20;;;;;;5063283;28;20202;-63
2022/12/08 02:30:32;;;;;;;86.43;36.93;;;6.20;98.20;;;;;;5063692;28;20223;-63
2022/12/08 02:33:24;;;;;;;92.33;39.53;;;6.20;98.10;;;;;;5064927;28;20191;-64
2022/12/08 02:36:07;;;;;;;90.50;40.40;;;6.10;97.60;;;;;;5055931;28;20198;-63
2022/12/08 02:39:14;;;;;;;85.13;37.97;;;6.10;97.70;;;;;;5060910;28;20643;-64
2022/12/08 02:41:52;;;;;;;92.77;41.33;;;6.00;97.80;;;;;;5062035;28;20256;-63
2022/12/08 02:44:25;;;;;;;105.13;43.03;;;6.00;98.00;;;;;;5060333;28;20192;-63
2022/12/08 02:47:07;;;;;;;92.83;43.23;;;6.00;98.10;;;;;;5062063;28;20228;-64
2022/12/08 02:49:35;;;;;;;103.17;40.43;;;6.00;98.20;;;;;;5061496;28;20652;-63
2022/12/08 02:52:30;;;;;;;95.33;44.63;;;6.10;98.30;;;;;;5066657;28;20209;-63
2022/12/08 02:55:21;;;;;;;87.23;41.20;;;6.10;98.30;;;;;;5052644;28;20213;-64
2022/12/08 02:58:09;;;;;;;91.63;40.63;;;6.10;98.30;;;;;;5059549;28;20513;-64
2022/12/08 03:01:07;;;;;;;99.23;41.37;;;6.10;98.30;;;;;;5062240;28;20319;-63
2022/12/08 03:04:03;;;;;;;87.30;38.80;;;6.10;98.40;;;;;;5049585;28;20226;-64
2022/12/08 03:07:03;;;;;;;90.07;38.97;;;6.20;98.40;;;;;;5059571;28;20224;-63
2022/12/08 03:09:46;;;;;;;90.30;39.97;;;6.20;98.30;;;;;;5046164;28;20526;-63
2022/12/08 03:12:20;;;;;;;95.57;41.80;;;6.20;98.30;;;;;;5062403;28;20218;-64
2022/12/08 03:14:52;;;;;;;102.97;41.00;;;6.20;98.30;;;;;;5065579;28;20197;-63
2022/12/08 03:17:21;;;;;;;88.20;41.03;;;6.20;98.30;;;;;;5063427;28;20205;-63
2022/12/08 03:19:49;;;;;;;102.83;42.13;;;6.20;98.30;;;;;;5064743;28;20216;-63
2022/12/08 03:22:21;;;;;;;92.80;41.57;;;6.20;98.30;;;;;;5051573;28;20208;-63
2022/12/08 03:24:48;;;;;;;89.63;42.07;;;6.20;98.20;;;;;;5059253;28;20530;-63
2022/12/08 03:27:20;;;;;;;92.13;40.73;;;6.20;98.20;;;;;;5064848;28;20281;-63
2022/12/08 03:29:49;;;;;;;100.03;40.20;;;6.20;98.30;;;;;;5059718;28;21326;-63
2022/12/08 03:32:27;;;;;;;95.30;41.03;;;6.20;98.30;;;;;;5061625;28;20574;-64
2022/12/08 03:34:57;;;;;;;95.90;40.37;;;6.30;98.20;;;;;;5066535;28;20196;-63
2022/12/08 03:37:26;;;;;;;88.97;40.57;;;6.20;98.40;;;;;;5065075;28;20207;-64
2022/12/08 03:39:53;;;;;;;98.40;41.33;;;6.30;98.20;;;;;;5060919;28;20195;-63
2022/12/08 03:42:20;;;;;;;102.87;41.50;;;6.30;98.20;;;;;;5068701;28;20209;-63
2022/12/08 03:44:47;;;;;;;93.83;40.93;;;6.20;98.20;;;;;;5064206;28;20215;-63
2022/12/08 03:47:14;;;;;;;99.40;42.43;;;6.20;98.20;;;;;;5050998;28;20220;-64
2022/12/08 03:49:41;;;;;;;96.37;39.13;;;6.20;98.20;;;;;;5064038;28;20205;-64
2022/12/08 03:52:09;;;;;;;102.60;41.20;;;6.20;97.90;;;;;;5064804;28;20244;-63
2022/12/08 03:54:36;;;;;;;90.87;41.23;;;6.20;97.80;;;;;;5052870;28;20201;-63
2022/12/08 03:57:03;;;;;;;93.83;41.43;;;6.10;97.80;;;;;;5063638;28;20198;-63
2022/12/08 03:59:30;;;;;;;85.77;38.77;;;6.20;97.90;;;;;;5062857;28;20238;-64
2022/12/08 04:01:57;;;;;;;80.40;38.40;;;6.10;97.80;;;;;;5056644;28;20205;-64
2022/12/08 04:04:24;;;;;;;100.83;41.63;;;6.00;97.70;;;;;;5068514;28;20229;-64
2022/12/08 04:06:51;;;;;;;101.23;41.00;;;6.00;97.80;;;;;;5051492;28;20205;-63
2022/12/08 04:09:18;;;;;;;93.90;40.43;;;6.00;97.90;;;;;;5065593;28;20208;-63
2022/12/08 04:11:45;;;;;;;94.10;41.90;;;6.00;98.10;;;;;;5066253;28;20214;-64
2022/12/08 04:14:12;;;;;;;95.10;38.63;;;6.00;98.10;;;;;;5063254;28;20195;-64
2022/12/08 04:16:40;;;;;;;98.87;42.00;;;6.00;98.10;;;;;;5060941;28;20203;-63
2022/12/08 04:19:07;;;;;;;92.20;39.73;;;6.00;97.80;;;;;;5060081;28;20623;-64
2022/12/08 04:21:34;;;;;;;93.27;39.20;;;5.90;97.80;;;;;;5063906;28;20639;-64
2022/12/08 04:24:01;;;;;;;87.57;39.37;;;5.90;97.80;;;;;;5063647;28;20531;-64
2022/12/08 04:26:28;;;;;;;82.37;34.90;;;5.80;97.90;;;;;;5051571;28;20252;-63
2022/12/08 04:28:56;;;;;;;93.33;40.13;;;5.80;98.00;;;;;;5057975;28;20217;-64
2022/12/08 04:31:23;;;;;;;98.63;42.93;;;5.80;98.10;;;;;;5062708;28;20343;-64
2022/12/08 04:33:50;;;;;;;97.57;39.57;;;5.70;98.20;;;;;;5054307;28;20197;-64
2022/12/08 04:36:17;;;;;;;102.93;41.13;;;5.70;98.30;;;;;;5054655;28;20204;-64
2022/12/08 04:38:44;;;;;;;98.13;41.80;;;5.70;98.50;;;;;;5060320;28;20307;-64
2022/12/08 04:41:11;;;;;;;101.70;41.43;;;5.70;98.60;;;;;;5060484;28;20209;-64
2022/12/08 04:43:39;;;;;;;105.20;42.83;;;5.70;98.70;;;;;;5063282;28;20240;-63
2022/12/08 04:46:08;;;;;;;103.93;39.77;;;5.70;98.80;;;;;;5045784;28;20252;-64
2022/12/08 04:48:38;;;;;;;109.60;44.43;;;5.70;98.90;;;;;;5061981;28;20208;-63
2022/12/08 04:51:06;;;;;;;108.67;41.53;;;5.80;99.00;;;;;;5060902;28;20214;-64
2022/12/08 04:53:33;;;;;;;103.17;43.40;;;5.80;99.00;;;;;;5060279;28;20194;-63
2022/12/08 04:56:00;;;;;;;98.50;40.83;;;5.80;99.00;;;;;;5061104;28;20625;-63
2022/12/08 04:58:27;;;;;;;108.10;43.17;;;5.90;99.10;;;;;;5065422;28;20206;-64
2022/12/08 05:00:54;;;;;;;87.90;39.17;;;5.90;99.10;;;;;;5064048;28;20216;-64
2022/12/08 05:03:21;;;;;;;98.93;39.43;;;6.00;99.00;;;;;;5065179;28;20268;-64
2022/12/08 05:05:54;;;;;;;91.60;39.57;;;6.00;98.80;;;;;;5064055;28;20233;-64
2022/12/08 05:08:21;;;;;;;99.53;40.83;;;5.90;98.50;;;;;;5062760;28;20546;-63
2022/12/08 05:10:48;;;;;;;112.90;42.30;;;5.90;98.50;;;;;;5062641;28;20206;-63
2022/12/08 05:13:15;;;;;;;106.83;42.27;;;5.90;98.60;;;;;;5062543;28;20193;-64
2022/12/08 05:15:43;;;;;;;97.07;41.00;;;5.90;98.70;;;;;;5070041;28;20239;-64
2022/12/08 05:18:10;;;;;;;100.63;39.63;;;6.00;98.80;;;;;;5050421;28;20207;-64
2022/12/08 05:20:37;;;;;;;96.87;42.07;;;5.90;98.60;;;;;;5065078;28;20705;-63
2022/12/08 05:23:04;;;;;;;115.30;41.63;;;5.90;98.40;;;;;;5059678;28;20258;-63
2022/12/08 05:25:31;;;;;;;117.20;44.17;;;5.90;98.50;;;;;;5048277;28;20606;-63
2022/12/08 05:27:58;;;;;;;125.00;47.13;;;5.90;98.60;;;;;;5057991;28;20198;-64
2022/12/08 05:30:45;;;;;;;151.77;58.33;;;5.90;98.70;;;;;;5062527;28;20193;-64
2022/12/08 05:33:12;;;;;;;159.10;56.77;;;5.90;98.80;;;;;;5063048;28;20210;-64
2022/12/08 05:35:40;;;;;;;148.57;58.47;;;6.00;98.60;;;;;;5066047;28;20255;-64
2022/12/08 05:38:07;;;;;;;138.10;54.17;;;5.90;98.50;;;;;;5065548;28;20678;-64
2022/12/08 05:40:37;;;;;;;142.63;57.57;;;5.90;98.40;;;;;;5063760;28;20200;-63
2022/12/08 05:43:05;;;;;;;140.27;54.40;;;5.90;98.40;;;;;;5064361;28;20205;-63
2022/12/08 05:45:32;;;;;;;113.53;48.73;;;5.80;98.50;;;;;;5063699;28;20675;-64
2022/12/08 05:48:00;;;;;;;118.47;48.47;;;5.80;98.60;;;;;;5058282;28;20279;-64
2022/12/08 05:50:27;;;;;;;118.53;49.20;;;5.80;98.60;;;;;;5061625;28;20197;-64
2022/12/08 05:52:56;;;;;;;116.07;46.57;;;5.80;98.70;;;;;;5064369;28;20242;-63
2022/12/08 05:55:23;;;;;;;112.17;44.83;;;5.80;98.90;;;;;;5045687;28;20284;-63
2022/12/08 05:57:50;;;;;;;118.93;48.10;;;5.80;98.90;;;;;;5060598;28;20300;-63
2022/12/08 06:00:17;;;;;;;125.10;48.23;;;5.80;99.00;;;;;;5063850;28;20230;-64
2022/12/08 06:02:45;;;;;;;127.67;47.33;;;5.80;99.10;;;;;;5063872;28;20266;-64
2022/12/08 06:05:12;;;;;;;111.43;47.67;;;5.90;99.10;;;;;;5061647;28;20198;-63
2022/12/08 06:07:39;;;;;;;116.37;46.67;;;5.90;99.00;;;;;;5061340;28;20204;-64
2022/12/08 06:10:06;;;;;;;137.97;48.63;;;5.90;98.90;;;;;;5061842;28;20360;-63
2022/12/08 06:12:34;;;;;;;124.67;46.43;;;5.90;98.80;;;;;;5062180;28;20640;-64
2022/12/08 06:15:01;;;;;;;112.77;45.63;;;5.90;98.90;;;;;;5059078;28;20629;-63
2022/12/08 06:17:28;;;;;;;120.53;46.33;;;5.90;98.90;;;;;;5045211;28;20580;-64
2022/12/08 06:19:55;;;;;;;122.10;46.50;;;5.90;99.00;;;;;;5059997;28;20298;-64
2022/12/08 06:22:22;;;;;;;113.07;45.00;;;5.90;99.00;;;;;;5063203;28;20202;-63
2022/12/08 06:24:49;;;;;;;121.80;47.10;;;5.90;99.00;;;;;;5068489;28;20713;-64
2022/12/08 06:27:16;;;;;;;119.40;48.10;;;6.00;98.90;;;;;;5066421;28;20201;-64
2022/12/08 06:29:43;;;;;;;137.30;47.93;;;5.90;98.70;;;;;;5061839;28;20589;-64
2022/12/08 06:32:11;;;;;;;139.53;49.57;;;5.90;98.70;;;;;;5066913;28;20228;-64
2022/12/08 06:34:38;;;;;;;134.67;46.80;;;5.90;98.70;;;;;;5062276;28;20215;-64
2022/12/08 06:37:05;;;;;;;129.00;47.47;;;5.90;98.80;;;;;;5062888;28;20201;-64
2022/12/08 06:39:32;;;;;;;135.07;49.63;;;5.80;98.90;;;;;;5055096;28;20211;-64
2022/12/08 06:44:44;;;;;;;146.53;50.80;;;5.80;99.10;;;;;;5045391;28;20276;-64
2022/12/08 06:47:11;;;;;;;137.40;50.67;;;5.90;99.20;;;;;;5057968;28;20655;-63
2022/12/08 06:49:39;;;;;;;150.80;50.53;;;5.90;99.30;;;;;;5062453;28;20198;-63
2022/12/08 06:52:06;;;;;;;140.57;51.00;;;5.90;99.30;;;;;;5060637;28;20213;-63
2022/12/08 06:54:33;;;;;;;143.33;51.87;;;6.00;99.30;;;;;;5062300;28;20216;-64
2022/12/08 06:57:00;;;;;;;128.63;50.53;;;6.00;99.40;;;;;;5058192;28;20206;-64
2022/12/08 06:59:27;;;;;;;130.00;50.93;;;6.10;99.40;;;;;;5059908;28;20704;-64
2022/12/08 07:01:54;;;;;;;110.73;44.77;;;6.10;99.40;;;;;;5062106;28;20229;-64
2022/12/08 07:04:22;;;;;;;122.33;47.10;;;6.20;99.40;;;;;;5061105;28;20202;-63
2022/12/08 07:06:49;;;;;;;110.63;45.40;;;6.20;99.30;;;;;;5060359;28;20213;-63
2022/12/08 07:09:16;;;;;;;113.97;43.97;;;6.20;99.30;;;;;;5061276;28;20198;-63
2022/12/08 07:11:43;;;;;;;115.23;45.03;;;6.30;99.30;;;;;;5065638;28;20584;-63
2022/12/08 07:14:12;;;;;;;101.17;44.40;;;6.30;99.20;;;;;;5070044;28;20213;-63
2022/12/08 07:16:39;;;;;;;113.90;48.33;;;6.30;99.20;;;;;;5053452;28;20208;-64
2022/12/08 07:19:06;;;;;;;105.50;47.13;;;6.40;99.20;;;;;;5060780;28;20270;-64
2022/12/08 07:21:33;;;;;;;118.93;45.73;;;6.40;99.20;;;;;;5063767;28;20281;-64
2022/12/08 07:24:01;;;;;;;124.80;48.40;;;6.40;99.20;;;;;;5059806;28;20197;-63
2022/12/08 07:26:28;;;;;;;120.60;47.20;;;6.50;99.10;;;;;;5063109;28;20197;-64
2022/12/08 07:28:55;;;;;;;117.07;46.63;;;6.50;99.10;;;;;;5063228;28;20202;-63
2022/12/08 07:31:24;;;;;;;122.70;47.73;;;6.50;99.10;;;;;;5061247;28;20198;-64
2022/12/08 07:33:52;;;;;;;118.80;46.07;;;6.50;99.00;;;;;;5067637;28;20198;-63
2022/12/08 07:36:19;;;;;;;106.43;46.50;;;6.60;99.00;;;;;;5066890;28;20198;-64
2022/12/08 07:38:46;;;;;;;107.40;47.07;;;6.60;99.00;;;;;;5064145;28;20198;-63
2022/12/08 07:41:19;;;;;;;121.53;46.60;;;6.60;99.00;;;;;;5069042;28;20262;-64
2022/12/08 07:43:49;;;;;;;108.27;45.63;;;6.70;99.00;;;;;;5060528;28;20194;-63
2022/12/08 07:46:19;;;;;;;112.67;45.27;;;6.70;98.90;;;;;;5060470;28;20201;-64
2022/12/08 07:48:46;;;;;;;109.77;44.73;;;6.80;98.90;;;;;;5065744;28;20263;-63
2022/12/08 07:51:15;;;;;;;100.73;43.60;;;6.80;98.90;;;;;;5063107;28;20194;-64
2022/12/08 07:53:44;;;;;;;108.33;44.67;;;6.80;98.80;;;;;;5068182;28;20259;-63
2022/12/08 07:56:19;;;;;;;112.60;44.43;;;6.80;98.70;;;;;;5062517;28;20197;-63
2022/12/08 07:58:46;;;;;;;114.00;45.93;;;6.80;98.70;;;;;;5063323;28;20245;-63
2022/12/08 08:01:28;;;;;;;118.03;47.77;;;6.90;98.60;;;;;;5064154;28;20592;-63
2022/12/08 08:04:00;;;;;;;101.90;43.93;;;6.90;98.60;;;;;;5067074;28;20524;-64
2022/12/08 08:06:27;;;;;;;115.40;46.43;;;6.90;98.60;;;;;;5062289;28;20229;-64
2022/12/08 08:08:55;;;;;;;105.73;45.77;;;6.90;98.60;;;;;;5062909;28;20202;-63
2022/12/08 08:11:22;;;;;;;119.27;46.63;;;7.00;98.50;;;;;;5064446;28;20201;-63
2022/12/08 08:13:50;;;;;;;113.27;45.43;;;7.00;98.50;;;;;;5060385;28;20205;-63
2022/12/08 08:16:18;;;;;;;113.40;48.23;;;7.10;98.50;;;;;;5064482;28;20190;-63
2022/12/08 08:18:48;;;;;;;129.50;44.50;;;7.10;98.40;;;;;;5062318;28;20202;-64
2022/12/08 08:21:16;;;;;;;116.07;47.40;;;7.10;98.40;;;;;;5068938;28;20205;-64
2022/12/08 08:24:04;;;;;;;103.40;42.50;;;7.20;98.40;;;;;;5069487;28;20251;-64
2022/12/08 08:26:31;;;;;;;111.23;45.53;;;7.20;98.30;;;;;;5065503;28;20201;-63
2022/12/08 08:28:58;;;;;;;113.43;48.23;;;7.20;98.30;;;;;;5063175;28;20636;-63
2022/12/08 08:31:26;;;;;;;110.33;47.90;;;7.20;98.20;;;;;;5065458;28;20216;-63
2022/12/08 08:33:55;;;;;;;118.50;45.60;;;7.30;98.20;;;;;;5065905;28;20191;-63
2022/12/08 08:36:23;;;;;;;106.17;46.07;;;7.30;98.10;;;;;;5062643;28;20230;-63
2022/12/08 08:38:50;;;;;;;106.50;43.60;;;7.30;98.10;;;;;;5059480;28;20214;-63
2022/12/08 08:41:17;;;;;;;107.67;45.60;;;7.30;98.10;;;;;;5062930;28;20250;-63
2022/12/08 08:43:44;;;;;;;108.67;44.70;;;7.30;98.00;;;;;;5067659;28;20194;-64
2022/12/08 08:46:11;;;;;;;104.70;45.93;;;7.30;98.00;;;;;;5064951;28;20212;-63
2022/12/08 08:48:38;;;;;;;114.03;46.10;;;7.40;98.00;;;;;;5064475;28;20199;-64
2022/12/08 08:51:08;;;;;;;109.63;47.90;;;7.40;98.00;;;;;;5063280;28;20206;-64
2022/12/08 08:53:35;;;;;;;103.77;43.33;;;7.40;98.00;;;;;;5067075;28;20619;-63
2022/12/08 08:56:04;;;;;;;92.60;43.60;;;7.40;97.80;;;;;;5048448;28;20217;-64
2022/12/08 08:58:31;;;;;;;94.53;40.63;;;7.40;97.70;;;;;;5059182;28;20190;-64
2022/12/08 09:00:58;;;;;;;86.23;39.40;;;7.50;97.80;;;;;;5063921;28;20190;-64
2022/12/08 09:03:25;;;;;;;98.80;43.77;;;7.50;97.70;;;;;;5062924;28;20216;-63
2022/12/08 09:05:54;;;;;;;99.83;43.67;;;7.60;97.40;;;;;;5061679;28;20555;-64
2022/12/08 09:08:22;;;;;;;97.47;44.23;;;7.60;97.30;;;;;;5063285;28;20208;-64
2022/12/08 09:10:50;;;;;;;97.87;43.57;;;7.60;97.30;;;;;;5060878;28;20663;-64
2022/12/08 09:13:17;;;;;;;96.27;44.30;;;7.60;97.10;;;;;;5066235;28;20228;-64
2022/12/08 09:15:44;;;;;;;102.20;45.00;;;7.50;96.80;;;;;;5048297;28;20205;-64
2022/12/08 09:18:11;;;;;;;98.63;43.67;;;7.50;96.90;;;;;;5062554;28;20198;-63
2022/12/08 09:20:38;;;;;;;99.07;43.37;;;7.50;96.90;;;;;;5063173;28;20205;-63
2022/12/08 09:23:05;;;;;;;111.10;47.00;;;7.50;96.80;;;;;;5063109;28;20197;-63
2022/12/08 09:25:32;;;;;;;102.77;44.73;;;7.50;96.90;;;;;;5065026;28;20212;-64
2022/12/08 09:27:59;;;;;;;96.73;44.90;;;7.50;97.00;;;;;;5063574;28;20655;-64
2022/12/08 09:30:27;;;;;;;94.87;44.77;;;7.50;96.90;;;;;;5061829;28;20233;-63
2022/12/08 09:32:54;;;;;;;98.10;44.90;;;7.50;96.70;;;;;;5061536;28;20214;-63
2022/12/08 09:35:21;;;;;;;96.93;45.43;;;7.40;96.50;;;;;;5068882;28;20209;-63
2022/12/08 09:37:48;;;;;;;105.93;45.13;;;7.40;96.70;;;;;;5063270;28;20212;-64
2022/12/08 09:40:18;;;;;;;97.90;44.73;;;7.50;96.90;;;;;;5065278;28;20211;-63
2022/12/08 09:43:18;;;;;;;102.50;45.40;;;7.50;97.00;;;;;;5047039;28;20206;-63
2022/12/08 09:45:47;;;;;;;108.80;48.63;;;7.60;97.20;;;;;;5063366;28;20205;-63
2022/12/08 09:48:18;;;;;;;98.93;45.37;;;7.70;97.20;;;;;;5058753;28;20208;-64
2022/12/08 09:50:48;;;;;;;92.77;44.40;;;7.70;97.10;;;;;;5064373;28;20295;-63
2022/12/08 09:53:28;;;;;;;97.57;46.60;;;7.70;97.30;;;;;;5063561;28;20305;-64
2022/12/08 09:56:01;;;;;;;90.17;43.87;;;7.80;97.00;;;;;;5064258;28;20221;-64
2022/12/08 09:58:51;;;;;;;99.00;42.20;;;7.90;97.00;;;;;;5065612;28;20210;-63
2022/12/08 10:01:20;;;;;;;88.87;42.33;;;7.90;96.40;;;;;;5067170;28;20289;-63
2022/12/08 10:03:49;;;;;;;93.17;43.87;;;7.90;96.30;;;;;;5066888;28;20600;-63
2022/12/08 10:06:48;;;;;;;93.07;43.67;;;8.00;96.30;;;;;;5057697;28;20198;-63
2022/12/08 10:09:27;;;;;;;86.03;43.97;;;8.10;96.40;;;;;;5062821;28;20198;-64
2022/12/08 10:12:04;;;;;;;92.97;42.70;;;8.20;96.50;;;;;;5041971;28;20296;-63
2022/12/08 10:14:46;;;;;;;82.13;41.73;;;8.30;96.50;;;;;;5051030;28;20652;-63
2022/12/08 10:17:22;;;;;;;86.40;44.27;;;8.50;96.40;;;;;;5059090;28;20627;-64
2022/12/08 10:19:55;;;;;;;80.33;42.07;;;8.60;96.10;;;;;;5057823;28;20280;-64
2022/12/08 10:22:25;;;;;;;85.33;43.33;;;8.80;96.00;;;;;;5064164;28;20205;-63
2022/12/08 10:25:15;;;;;;;83.87;42.77;;;8.90;95.80;;;;;;5061628;28;20587;-63
2022/12/08 10:27:43;;;;;;;87.37;42.63;;;9.00;95.60;;;;;;5061816;28;20213;-63
2022/12/08 10:30:14;;;;;;;86.57;41.50;;;9.00;95.30;;;;;;5063547;28;20201;-64
2022/12/08 10:32:45;;;;;;;90.37;44.80;;;9.00;95.10;;;;;;5064647;28;20214;-63
2022/12/08 10:35:15;;;;;;;97.53;46.73;;;9.00;94.90;;;;;;5059921;28;20203;-64
2022/12/08 10:37:56;;;;;;;94.40;43.70;;;8.90;94.60;;;;;;5061482;28;20229;-64
2022/12/08 10:40:26;;;;;;;93.27;45.63;;;8.80;94.20;;;;;;5059660;28;20604;-64
2022/12/08 10:42:56;;;;;;;104.30;46.80;;;8.70;93.80;;;;;;5045905;28;20229;-63
2022/12/08 10:45:25;;;;;;;98.30;45.40;;;8.50;94.10;;;;;;5057349;28;20199;-63
2022/12/08 10:48:12;;;;;;;95.23;45.07;;;8.50;94.50;;;;;;5063147;28;20213;-64
2022/12/08 10:50:56;;;;;;;88.93;44.37;;;8.50;94.80;;;;;;5050176;28;20209;-64
2022/12/08 10:53:29;;;;;;;89.80;43.97;;;8.40;94.70;;;;;;5051353;28;20219;-63
2022/12/08 10:56:02;;;;;;;94.50;43.97;;;8.40;94.70;;;;;;5063057;28;20293;-63
2022/12/08 10:58:34;;;;;;;106.67;44.60;;;8.40;95.00;;;;;;5063925;28;20194;-63
2022/12/08 11:01:22;;;;;;;92.77;43.37;;;8.40;95.20;;;;;;5066716;28;20258;-64
2022/12/08 11:04:00;;;;;;;95.53;44.83;;;8.50;95.30;;;;;;5068425;28;20203;-64
2022/12/08 11:06:32;;;;;;;95.17;44.27;;;8.60;95.40;;;;;;5066562;28;20203;-64
2022/12/08 11:09:20;;;;;;;89.20;43.20;;;8.60;95.40;;;;;;5065562;28;20225;-63
2022/12/08 11:11:52;;;;;;;83.57;40.07;;;8.70;95.30;;;;;;5066453;28;20214;-63
2022/12/08 11:14:40;;;;;;;81.00;40.53;;;8.80;95.10;;;;;;5066196;28;20640;-63
2022/12/08 11:17:15;;;;;;;89.97;44.60;;;8.80;94.80;;;;;;5061147;28;20207;-64
2022/12/08 11:20:00;;;;;;;89.10;44.00;;;8.80;94.80;;;;;;5066177;28;20201;-63
2022/12/08 11:22:37;;;;;;;84.23;42.13;;;8.80;94.70;;;;;;5064335;28;20248;-64
2022/12/08 11:25:07;;;;;;;86.80;43.20;;;8.80;94.60;;;;;;5064697;28;20205;-63
2022/12/08 11:27:37;;;;;;;85.07;42.17;;;8.80;94.60;;;;;;5063596;28;20203;-64
2022/12/08 11:30:15;;;;;;;85.63;42.73;;;8.90;94.50;;;;;;5063018;28;20638;-64
2022/12/08 11:32:46;;;;;;;97.03;45.77;;;8.80;94.50;;;;;;5044785;28;20214;-63
2022/12/08 11:35:28;;;;;;;86.80;42.73;;;8.90;94.50;;;;;;5064958;28;20194;-63
2022/12/08 11:38:02;;;;;;;87.97;45.40;;;8.90;94.60;;;;;;5065817;28;20198;-63
2022/12/08 11:40:51;;;;;;;85.93;43.53;;;9.00;94.60;;;;;;5065404;28;20222;-64
2022/12/08 11:43:33;;;;;;;81.80;42.80;;;9.00;94.50;;;;;;5062868;28;20650;-63
2022/12/08 11:46:26;;;;;;;88.67;43.97;;;9.10;94.20;;;;;;5062532;28;20555;-63
2022/12/08 11:49:01;;;;;;;90.50;44.77;;;9.20;94.30;;;;;;5055442;28;20596;-64
2022/12/08 11:51:34;;;;;;;77.07;41.50;;;9.40;94.40;;;;;;5061134;28;20195;-63
2022/12/08 11:54:21;;;;;;;78.23;42.40;;;9.60;94.10;;;;;;5069774;28;20214;-64
2022/12/08 11:57:02;;;;;;;78.17;41.53;;;9.80;93.70;;;;;;5066556;28;20198;-63
2022/12/08 11:59:45;;;;;;;79.47;41.00;;;10.00;93.40;;;;;;5064344;28;20234;-63
2022/12/08 12:02:20;;;;;;;81.50;41.73;;;10.10;92.90;;;;;;5066841;28;20237;-64
2022/12/08 12:04:48;;;;;;;78.33;40.87;;;10.30;92.40;;;;;;5064108;28;20209;-63
2022/12/08 12:07:21;;;;;;;76.77;40.07;;;10.30;92.00;;;;;;5057635;28;20289;-64
2022/12/08 12:10:13;;;;;;;79.57;42.13;;;10.30;91.50;;;;;;5062280;28;20215;-64
2022/12/08 12:12:47;;;;;;;77.60;42.13;;;10.30;91.50;;;;;;5064838;28;20222;-64
2022/12/08 12:15:33;;;;;;;75.70;41.60;;;10.30;91.50;;;;;;5066019;28;20199;-63
2022/12/08 12:18:12;;;;;;;74.70;41.87;;;10.40;91.70;;;;;;5064494;28;20197;-63
2022/12/08 12:21:21;;;;;;;74.87;41.77;;;10.40;91.70;;;;;;5067393;28;20237;-64
2022/12/08 12:23:55;;;;;;;80.03;43.37;;;10.40;91.80;;;;;;5065029;28;20214;-64
2022/12/08 12:26:25;;;;;;;85.27;43.77;;;10.50;91.70;;;;;;5060236;28;20247;-63
2022/12/08 12:29:05;;;;;;;78.90;42.33;;;10.50;91.50;;;;;;5044998;28;20200;-64
2022/12/08 12:31:41;;;;;;;78.20;44.07;;;10.60;91.10;;;;;;5063274;28;20200;-63
2022/12/08 12:34:32;;;;;;;79.33;41.63;;;10.60;90.80;;;;;;5061723;28;20884;-64
2022/12/08 12:37:11;;;;;;;81.80;42.43;;;10.40;90.80;;;;;;5063051;28;20556;-64
2022/12/08 12:40:19;;;;;;;79.17;42.57;;;10.30;90.80;;;;;;5062993;28;20218;-63
2022/12/08 12:42:54;;;;;;;80.03;43.63;;;10.00;90.80;;;;;;5001661;28;20680;-63
2022/12/08 12:45:21;;;;;;;84.53;44.47;;;9.90;91.20;;;;;;5058670;28;20671;-64
2022/12/08 12:47:55;;;;;;;77.07;42.77;;;9.90;91.50;;;;;;5057998;28;20279;-64
2022/12/08 12:50:44;;;;;;;74.50;41.63;;;9.90;91.70;;;;;;5061959;28;20265;-63
2022/12/08 12:53:17;;;;;;;77.73;40.63;;;9.90;91.90;;;;;;5062458;28;20254;-64
2022/12/08 12:55:44;;;;;;;77.07;40.27;;;9.90;91.90;;;;;;5061804;28;20196;-64
2022/12/08 12:58:28;;;;;;;76.30;41.77;;;10.00;91.90;;;;;;5057962;28;20204;-63
2022/12/08 13:01:13;;;;;;;72.73;42.20;;;10.00;91.90;;;;;;5063436;28;20505;-64
2022/12/08 13:03:44;;;;;;;76.53;41.93;;;10.00;91.90;;;;;;5063694;28;20221;-64
2022/12/08 13:06:14;;;;;;;80.90;40.83;;;10.00;91.80;;;;;;5064538;28;20214;-64